Time;durP1;ratioP1;P1;durP2;ratioP2;P2;SDS_P1;SDS_P2;PMS_P1;PMS_P2;Temp;Humidity;BMP_temperature;BMP_pressure;BME280_temperature;BME280_humidity;BME280_pressure;Samples;Min_cycle;Max_cycle;Signal;HPM_P1;HPM_P2
2023/08/07 00:00:39;;;;;;;3.83;2.57;;;15.90;1.00;;;;;;5036055;28;20402;-68
2023/08/07 00:03:05;;;;;;;4.60;1.80;;;16.00;1.00;;;;;;5036100;28;20209;-73
2023/08/07 00:05:30;;;;;;;2.47;2.13;;;15.90;1.00;;;;;;5032075;28;20457;-74
2023/08/07 00:07:56;;;;;;;3.07;2.50;;;15.90;1.00;;;;;;5036009;28;20188;-69
2023/08/07 00:10:22;;;;;;;2.20;2.00;;;15.90;1.00;;;;;;5035348;28;20175;-70
2023/08/07 00:12:48;;;;;;;4.27;2.00;;;15.80;1.00;;;;;;5036184;28;20399;-69
2023/08/07 00:15:14;;;;;;;4.40;1.97;;;15.80;1.00;;;;;;5033260;28;20270;-73
2023/08/07 00:17:40;;;;;;;2.20;2.10;;;15.80;1.00;;;;;;5035691;28;20187;-67
2023/08/07 00:20:07;;;;;;;2.20;2.10;;;15.70;1.00;;;;;;5035643;28;20450;-67
2023/08/07 00:22:33;;;;;;;3.30;2.47;;;15.70;1.00;;;;;;5034782;28;21008;-67
2023/08/07 00:24:58;;;;;;;3.90;1.97;;;15.60;1.00;;;;;;5033843;28;20422;-66
2023/08/07 00:27:24;;;;;;;6.30;2.40;;;15.70;1.00;;;;;;5035206;28;20262;-74
2023/08/07 00:29:50;;;;;;;4.60;2.80;;;15.70;1.00;;;;;;5034564;28;20588;-67
2023/08/07 00:32:16;;;;;;;2.50;2.33;;;15.70;1.00;;;;;;5035710;28;20262;-74
2023/08/07 00:34:41;;;;;;;1.90;1.80;;;15.70;1.00;;;;;;5035272;28;20175;-67
2023/08/07 00:37:07;;;;;;;4.50;2.27;;;15.70;1.00;;;;;;5034483;28;20238;-67
2023/08/07 00:39:33;;;;;;;2.10;1.93;;;15.70;1.00;;;;;;5035149;28;20540;-73
2023/08/07 00:41:58;;;;;;;3.63;2.70;;;15.70;1.00;;;;;;5035760;28;20188;-70
2023/08/07 00:44:24;;;;;;;5.67;2.30;;;15.70;1.00;;;;;;5033289;28;20175;-68
2023/08/07 00:46:50;;;;;;;2.93;2.03;;;15.70;1.00;;;;;;5034505;28;20214;-74
2023/08/07 00:49:17;;;;;;;2.53;2.33;;;15.70;1.00;;;;;;5035496;28;20229;-67
2023/08/07 00:51:44;;;;;;;2.77;1.90;;;15.70;1.00;;;;;;5034887;28;20172;-73
2023/08/07 00:54:11;;;;;;;2.60;2.37;;;15.70;1.00;;;;;;5034638;28;20501;-69
2023/08/07 00:56:39;;;;;;;2.63;2.40;;;15.70;1.00;;;;;;5034125;28;20418;-74
2023/08/07 00:59:04;;;;;;;2.20;2.10;;;15.60;1.00;;;;;;5034302;28;20903;-67
2023/08/07 01:01:30;;;;;;;4.20;2.20;;;15.60;1.00;;;;;;5033963;28;20485;-73
2023/08/07 01:03:56;;;;;;;2.10;2.00;;;15.60;1.00;;;;;;5033740;28;20171;-67
2023/08/07 01:06:22;;;;;;;2.13;2.00;;;15.60;1.00;;;;;;5034387;28;20164;-68
2023/08/07 01:08:48;;;;;;;2.50;2.30;;;15.50;1.00;;;;;;5033823;28;20183;-70
2023/08/07 01:11:48;;;;;;;2.53;2.30;;;15.60;1.00;;;;;;5034476;28;20219;-67
2023/08/07 01:14:33;;;;;;;4.70;3.70;;;15.50;1.00;;;;;;5033931;28;20180;-67
2023/08/07 01:17:03;;;;;;;2.40;2.20;;;15.60;1.00;;;;;;5034122;28;20450;-73
2023/08/07 01:19:29;;;;;;;3.80;1.97;;;15.60;1.00;;;;;;5033797;28;20414;-70
2023/08/07 01:22:24;;;;;;;3.83;2.60;;;15.50;1.00;;;;;;5034507;28;20480;-74
2023/08/07 01:24:51;;;;;;;2.27;2.07;;;15.50;1.00;;;;;;5034391;28;20179;-73
2023/08/07 01:27:35;;;;;;;2.40;2.20;;;15.40;1.00;;;;;;5030704;28;20453;-71
2023/08/07 01:30:29;;;;;;;2.03;1.90;;;15.40;1.00;;;;;;5034013;28;20764;-70
2023/08/07 01:33:06;;;;;;;4.20;2.10;;;15.50;1.00;;;;;;5032701;28;20430;-67
2023/08/07 01:35:44;;;;;;;4.70;2.07;;;15.50;1.00;;;;;;5031402;28;20799;-69
2023/08/07 01:38:12;;;;;;;2.57;1.97;;;15.50;1.00;;;;;;5033138;28;20457;-74
2023/08/07 01:40:39;;;;;;;2.20;2.00;;;15.50;1.00;;;;;;5034134;28;20437;-67
2023/08/07 01:43:05;;;;;;;2.10;2.00;;;15.40;1.00;;;;;;5032410;28;20433;-73
2023/08/07 01:45:30;;;;;;;3.93;2.57;;;15.40;1.00;;;;;;5033594;28;20402;-71
2023/08/07 01:47:56;;;;;;;2.63;1.90;;;15.40;1.00;;;;;;5033816;28;20425;-67
2023/08/07 01:50:23;;;;;;;2.40;2.20;;;15.40;1.00;;;;;;5031886;28;20175;-67
2023/08/07 01:52:49;;;;;;;2.60;2.37;;;15.40;1.00;;;;;;5014486;28;20168;-67
2023/08/07 01:55:16;;;;;;;2.50;2.07;;;15.40;1.00;;;;;;5013628;28;20431;-67
2023/08/07 01:57:42;;;;;;;2.70;2.50;;;15.40;1.00;;;;;;5021967;28;20453;-74
2023/08/07 02:00:08;;;;;;;2.30;2.10;;;15.40;1.00;;;;;;5033776;28;20407;-67
2023/08/07 02:02:35;;;;;;;3.87;2.30;;;15.40;1.00;;;;;;5033196;28;20199;-67
2023/08/07 02:05:00;;;;;;;2.67;2.47;;;15.40;1.00;;;;;;5033201;28;20418;-73
2023/08/07 02:07:26;;;;;;;7.37;2.37;;;15.40;1.00;;;;;;5033481;28;20426;-70
2023/08/07 02:09:52;;;;;;;3.43;2.23;;;15.40;1.00;;;;;;5032051;28;20250;-73
2023/08/07 02:12:18;;;;;;;2.43;2.23;;;15.40;1.00;;;;;;5032550;28;20260;-70
2023/08/07 02:14:43;;;;;;;2.77;2.40;;;15.40;1.00;;;;;;5034142;28;20179;-66
2023/08/07 02:17:09;;;;;;;2.73;2.53;;;15.40;1.00;;;;;;5015980;28;20639;-67
2023/08/07 02:19:35;;;;;;;3.57;2.73;;;15.30;1.00;;;;;;5013810;28;20168;-74
2023/08/07 02:22:01;;;;;;;4.13;2.40;;;15.30;1.00;;;;;;5014045;28;20668;-74
2023/08/07 02:24:27;;;;;;;1.83;1.67;;;15.30;1.00;;;;;;5012586;28;20173;-66
2023/08/07 02:26:53;;;;;;;2.13;1.97;;;15.30;1.00;;;;;;5013092;28;20454;-67
2023/08/07 02:29:18;;;;;;;3.50;2.40;;;15.40;1.00;;;;;;5030003;28;20174;-72
2023/08/07 02:31:44;;;;;;;2.93;2.60;;;15.40;1.00;;;;;;5033742;28;20494;-74
2023/08/07 02:34:10;;;;;;;3.90;2.80;;;15.30;1.00;;;;;;5033665;28;20266;-70
2023/08/07 02:36:35;;;;;;;3.60;2.20;;;15.30;1.00;;;;;;5032504;28;20229;-74
2023/08/07 02:39:01;;;;;;;3.53;1.87;;;15.30;1.00;;;;;;5033483;28;20190;-70
2023/08/07 02:41:27;;;;;;;15.33;2.53;;;15.20;1.00;;;;;;5031328;28;20207;-68
2023/08/07 02:43:53;;;;;;;3.00;2.23;;;15.20;1.00;;;;;;5031330;28;20210;-68
2023/08/07 02:46:18;;;;;;;2.40;2.20;;;15.20;1.00;;;;;;5031950;28;20536;-70
2023/08/07 02:48:44;;;;;;;4.00;2.90;;;15.20;1.00;;;;;;5033458;28;20187;-67
2023/08/07 02:51:10;;;;;;;4.90;2.50;;;15.20;1.00;;;;;;5033593;28;20651;-73
2023/08/07 02:53:36;;;;;;;6.43;3.03;;;15.20;1.00;;;;;;5033208;28;20182;-70
2023/08/07 02:56:02;;;;;;;6.90;2.73;;;15.20;1.00;;;;;;5031090;28;20702;-69
2023/08/07 02:58:27;;;;;;;3.20;2.80;;;15.20;1.00;;;;;;5030688;28;20203;-73
2023/08/07 03:00:53;;;;;;;3.13;2.93;;;15.10;1.00;;;;;;5033213;28;20887;-74
2023/08/07 03:03:19;;;;;;;3.67;3.10;;;15.10;1.00;;;;;;5031994;28;20217;-67
2023/08/07 03:05:51;;;;;;;3.50;2.73;;;15.10;1.00;;;;;;5031695;28;20171;-67
2023/08/07 03:08:17;;;;;;;9.90;3.07;;;15.10;1.00;;;;;;5033015;28;20576;-72
2023/08/07 03:10:53;;;;;;;2.30;2.10;;;15.10;1.00;;;;;;5032156;28;20441;-72
2023/08/07 03:13:19;;;;;;;3.70;3.13;;;15.10;1.00;;;;;;5032788;28;20426;-67
2023/08/07 03:15:44;;;;;;;5.27;3.73;;;15.10;1.00;;;;;;5036149;28;20764;-68
2023/08/07 03:18:10;;;;;;;3.10;2.80;;;15.20;1.00;;;;;;5035752;28;20191;-68
2023/08/07 03:20:37;;;;;;;6.20;2.93;;;15.20;1.00;;;;;;5037285;28;20175;-72
2023/08/07 03:23:03;;;;;;;3.83;2.63;;;15.20;1.00;;;;;;5034011;28;20871;-67
2023/08/07 03:25:28;;;;;;;4.60;2.40;;;15.20;1.00;;;;;;5034805;28;20421;-71
2023/08/07 03:27:54;;;;;;;5.00;2.53;;;15.10;1.00;;;;;;5037010;28;20187;-73
2023/08/07 03:30:20;;;;;;;3.17;2.87;;;15.10;1.00;;;;;;5035028;28;20226;-69
2023/08/07 03:32:45;;;;;;;5.43;3.03;;;15.10;1.00;;;;;;5035812;28;20186;-74
2023/08/07 03:35:11;;;;;;;3.57;2.23;;;15.10;1.00;;;;;;5035517;28;20198;-73
2023/08/07 03:37:37;;;;;;;2.33;2.13;;;15.10;1.00;;;;;;5035589;28;20655;-71
2023/08/07 03:40:03;;;;;;;4.57;2.70;;;15.10;1.00;;;;;;5036149;28;20199;-74
2023/08/07 03:42:29;;;;;;;4.40;2.87;;;15.10;1.00;;;;;;5036304;28;20215;-67
2023/08/07 03:44:54;;;;;;;2.57;2.20;;;15.10;1.10;;;;;;5033752;28;20469;-74
2023/08/07 03:47:20;;;;;;;5.23;2.50;;;15.20;6.10;;;;;;5035999;28;20191;-67
2023/08/07 03:49:46;;;;;;;3.33;2.60;;;15.10;7.00;;;;;;5036859;28;20527;-68
2023/08/07 03:52:12;;;;;;;4.80;2.43;;;15.20;11.90;;;;;;5036006;28;20178;-74
2023/08/07 03:54:37;;;;;;;7.60;3.10;;;15.20;13.50;;;;;;5036365;28;20544;-67
2023/08/07 03:57:03;;;;;;;4.87;2.67;;;15.20;16.30;;;;;;5033689;28;20207;-74
2023/08/07 03:59:29;;;;;;;5.00;2.30;;;15.20;24.30;;;;;;5035502;28;20179;-67
2023/08/07 04:01:55;;;;;;;4.93;2.73;;;15.20;25.20;;;;;;5036165;28;20450;-67
2023/08/07 04:04:20;;;;;;;4.60;2.50;;;15.20;26.80;;;;;;5035198;28;20668;-67
2023/08/07 04:06:46;;;;;;;5.60;2.63;;;15.20;30.80;;;;;;5035305;28;20174;-72
2023/08/07 04:09:12;;;;;;;3.47;2.67;;;15.20;33.30;;;;;;5035888;28;20191;-73
2023/08/07 04:11:37;;;;;;;3.90;2.33;;;15.20;38.10;;;;;;5035944;28;20182;-69
2023/08/07 04:14:03;;;;;;;4.00;2.07;;;15.30;46.80;;;;;;5032229;28;20183;-73
2023/08/07 04:16:31;;;;;;;2.60;2.30;;;15.30;44.50;;;;;;5033957;28;20535;-72
2023/08/07 04:18:56;;;;;;;3.03;2.30;;;15.20;43.10;;;;;;5020407;28;20831;-73
2023/08/07 04:21:22;;;;;;;5.77;2.63;;;15.30;49.30;;;;;;5015959;28;20479;-73
2023/08/07 04:23:48;;;;;;;5.40;2.80;;;15.30;48.90;;;;;;5016226;28;20170;-74
2023/08/07 04:26:14;;;;;;;8.27;3.10;;;15.30;44.20;;;;;;5014233;28;20474;-73
2023/08/07 04:28:40;;;;;;;6.40;2.77;;;15.30;46.60;;;;;;5020089;28;20253;-73
2023/08/07 04:31:06;;;;;;;2.97;2.20;;;15.30;46.60;;;;;;5035568;28;20225;-69
2023/08/07 04:33:32;;;;;;;6.77;3.47;;;15.30;48.30;;;;;;5035915;28;20895;-68
2023/08/07 04:35:57;;;;;;;4.07;2.27;;;15.30;53.70;;;;;;5034683;28;20230;-68
2023/08/07 04:38:23;;;;;;;7.90;2.13;;;15.20;54.80;;;;;;5034510;28;20195;-72
2023/08/07 04:40:50;;;;;;;4.00;2.50;;;15.20;61.00;;;;;;5035248;28;20183;-72
2023/08/07 04:43:16;;;;;;;3.27;2.97;;;15.20;67.00;;;;;;5033912;28;20176;-72
2023/08/07 04:45:44;;;;;;;6.87;2.20;;;15.30;70.90;;;;;;5034473;28;20407;-66
2023/08/07 04:48:14;;;;;;;7.47;2.13;;;15.30;76.00;;;;;;5033569;28;20963;-73
2023/08/07 04:50:40;;;;;;;4.10;2.50;;;15.30;77.40;;;;;;5035209;28;20406;-67
2023/08/07 04:53:06;;;;;;;3.70;2.40;;;15.30;76.60;;;;;;5033750;28;20775;-68
2023/08/07 04:55:32;;;;;;;5.17;2.60;;;15.30;83.10;;;;;;5034502;28;20488;-69
2023/08/07 04:57:58;;;;;;;3.33;2.50;;;15.30;89.00;;;;;;5033722;28;21022;-65
2023/08/07 05:00:24;;;;;;;10.43;4.00;;;15.30;94.00;;;;;;5034775;28;20548;-69
2023/08/07 05:02:50;;;;;;;4.60;2.20;;;15.30;94.00;;;;;;5035241;28;20489;-65
2023/08/07 05:05:17;;;;;;;4.07;2.23;;;15.40;94.00;;;;;;5034172;28;20397;-65
2023/08/07 05:07:43;;;;;;;4.80;2.43;;;15.40;94.00;;;;;;5033140;28;20448;-67
2023/08/07 05:10:09;;;;;;;6.20;2.67;;;15.40;94.00;;;;;;5034993;28;20410;-68
2023/08/07 05:12:35;;;;;;;4.67;2.20;;;15.50;94.10;;;;;;5033409;28;20172;-69
2023/08/07 05:15:01;;;;;;;2.97;2.70;;;15.50;94.10;;;;;;5023819;28;20418;-71
2023/08/07 05:17:27;;;;;;;6.23;2.87;;;15.40;89.00;;;;;;5014525;28;20449;-72
2023/08/07 05:19:53;;;;;;;5.37;2.40;;;15.50;94.00;;;;;;5014010;28;20644;-67
2023/08/07 05:22:18;;;;;;;5.47;2.67;;;15.50;94.00;;;;;;5015236;28;20207;-73
2023/08/07 05:24:45;;;;;;;3.93;2.40;;;15.50;90.50;;;;;;5013908;28;20180;-66
2023/08/07 05:27:11;;;;;;;5.23;2.73;;;15.50;77.70;;;;;;5017035;28;21123;-72
2023/08/07 05:29:43;;;;;;;10.60;3.40;;;15.50;71.00;;;;;;5033092;28;20516;-66
2023/08/07 05:32:17;;;;;;;5.43;2.80;;;15.60;63.70;;;;;;5024863;28;20577;-72
2023/08/07 05:34:43;;;;;;;5.73;2.53;;;15.60;56.80;;;;;;5032852;28;20426;-67
2023/08/07 05:37:09;;;;;;;6.57;2.30;;;15.70;41.70;;;;;;5033544;28;20430;-72
2023/08/07 05:39:35;;;;;;;5.77;2.57;;;15.70;25.20;;;;;;5034338;28;20180;-73
2023/08/07 05:42:01;;;;;;;7.53;3.20;;;15.80;18.90;;;;;;5032108;28;20207;-68
2023/08/07 05:44:27;;;;;;;11.80;2.90;;;15.80;17.10;;;;;;5034515;28;20406;-73
2023/08/07 05:46:53;;;;;;;6.77;3.73;;;15.80;3.60;;;;;;5032923;28;20429;-73
2023/08/07 05:49:19;;;;;;;8.90;2.63;;;15.80;1.00;;;;;;5032898;28;20429;-72
2023/08/07 05:51:45;;;;;;;9.87;3.50;;;15.80;1.00;;;;;;5032232;28;20237;-73
2023/08/07 05:54:11;;;;;;;7.63;3.50;;;15.90;1.00;;;;;;5032485;28;20445;-70
2023/08/07 05:56:38;;;;;;;8.10;3.73;;;16.00;1.00;;;;;;5028814;28;20773;-69
2023/08/07 05:59:04;;;;;;;6.93;3.20;;;16.00;1.00;;;;;;5014360;28;20222;-67
2023/08/07 06:01:31;;;;;;;8.47;3.77;;;16.10;1.00;;;;;;5019622;28;20558;-71
2023/08/07 06:03:59;;;;;;;12.90;3.27;;;16.00;1.00;;;;;;5034051;28;20398;-71
2023/08/07 06:06:27;;;;;;;15.97;3.87;;;16.10;1.00;;;;;;5032864;28;20486;-72
2023/08/07 06:08:54;;;;;;;9.73;3.60;;;16.10;1.00;;;;;;5033844;28;20402;-67
2023/08/07 06:11:19;;;;;;;6.20;2.93;;;16.20;1.00;;;;;;5029458;28;20430;-67
2023/08/07 06:13:45;;;;;;;5.83;3.20;;;16.20;1.00;;;;;;5015723;28;20821;-66
2023/08/07 06:16:11;;;;;;;10.77;3.33;;;16.20;1.00;;;;;;5012988;28;20176;-74
2023/08/07 06:18:37;;;;;;;8.37;3.20;;;16.30;1.00;;;;;;5013939;28;20191;-71
2023/08/07 06:21:04;;;;;;;7.20;3.03;;;16.30;1.00;;;;;;5016549;28;20218;-68
2023/08/07 06:23:30;;;;;;;8.90;3.47;;;16.30;1.00;;;;;;5033633;28;20221;-67
2023/08/07 06:25:57;;;;;;;15.00;3.30;;;16.20;1.00;;;;;;5031478;28;20411;-69
2023/08/07 06:28:22;;;;;;;11.10;4.70;;;16.20;1.00;;;;;;5017090;28;20196;-72
2023/08/07 06:30:48;;;;;;;10.43;4.17;;;16.30;1.00;;;;;;5014434;28;20403;-66
2023/08/07 06:33:14;;;;;;;8.90;4.50;;;16.30;1.00;;;;;;5013917;28;20243;-67
2023/08/07 06:35:39;;;;;;;10.30;3.20;;;16.30;1.00;;;;;;5011624;28;20187;-66
2023/08/07 06:38:06;;;;;;;20.50;3.63;;;16.40;1.00;;;;;;5026885;28;20683;-72
2023/08/07 06:40:31;;;;;;;7.83;3.13;;;16.40;1.00;;;;;;5033515;28;20180;-70
2023/08/07 06:42:57;;;;;;;13.67;3.73;;;16.50;1.00;;;;;;5031317;28;20485;-67
2023/08/07 06:45:23;;;;;;;21.53;3.90;;;16.50;1.00;;;;;;5031660;28;20265;-71
2023/08/07 06:47:48;;;;;;;6.43;3.40;;;16.40;1.00;;;;;;5032033;28;20203;-72
2023/08/07 06:50:14;;;;;;;13.13;3.30;;;16.40;1.00;;;;;;5033115;28;20170;-67
2023/08/07 06:52:40;;;;;;;7.00;3.33;;;16.40;1.00;;;;;;5032832;28;20174;-68
2023/08/07 06:55:07;;;;;;;16.57;4.33;;;16.50;1.00;;;;;;5031117;28;20430;-69
2023/08/07 06:57:33;;;;;;;11.37;4.17;;;16.50;1.00;;;;;;5031404;28;20527;-72
2023/08/07 06:59:58;;;;;;;11.00;3.53;;;16.50;1.00;;;;;;5033455;28;20394;-67
2023/08/07 07:02:24;;;;;;;7.33;4.33;;;16.50;1.00;;;;;;5032964;28;20453;-66
2023/08/07 07:04:50;;;;;;;7.60;3.20;;;16.60;1.00;;;;;;5031583;28;20258;-72
2023/08/07 07:07:16;;;;;;;10.57;2.80;;;16.60;1.00;;;;;;5032408;28;20187;-73
2023/08/07 07:09:41;;;;;;;10.67;4.07;;;16.60;1.00;;;;;;5033321;28;20168;-70
2023/08/07 07:12:07;;;;;;;5.70;3.77;;;16.70;1.00;;;;;;5031181;28;20806;-70
2023/08/07 07:14:34;;;;;;;10.63;3.00;;;16.60;1.00;;;;;;5033060;28;20191;-66
2023/08/07 07:17:00;;;;;;;7.73;3.60;;;16.70;1.00;;;;;;5032229;28;20423;-72
2023/08/07 07:19:26;;;;;;;6.70;3.97;;;16.70;1.00;;;;;;5033059;28;20406;-72
2023/08/07 07:21:53;;;;;;;12.77;3.50;;;16.80;1.00;;;;;;5031092;28;20446;-65
2023/08/07 07:24:19;;;;;;;10.97;3.13;;;16.80;1.00;;;;;;5032614;28;20190;-66
2023/08/07 07:26:44;;;;;;;10.27;3.40;;;16.80;1.00;;;;;;5032005;28;20491;-74
2023/08/07 07:29:10;;;;;;;5.33;3.30;;;16.80;1.00;;;;;;5031834;28;20594;-65
2023/08/07 07:31:36;;;;;;;9.13;3.10;;;16.80;1.00;;;;;;5032956;28;20179;-75
2023/08/07 07:34:02;;;;;;;7.30;3.57;;;16.90;1.00;;;;;;5013287;28;20180;-71
2023/08/07 07:36:28;;;;;;;16.43;4.13;;;16.90;1.00;;;;;;5012276;28;20545;-75
2023/08/07 07:38:54;;;;;;;13.73;5.10;;;17.00;1.00;;;;;;5012753;28;20246;-66
2023/08/07 07:41:20;;;;;;;6.73;4.57;;;17.10;1.00;;;;;;5014144;28;20514;-73
2023/08/07 07:43:46;;;;;;;9.87;3.40;;;17.00;1.00;;;;;;5031150;28;20267;-65
2023/08/07 07:46:12;;;;;;;8.33;3.60;;;16.90;1.00;;;;;;5032241;28;20510;-71
2023/08/07 07:48:38;;;;;;;19.03;3.80;;;16.90;1.00;;;;;;5032832;28;20430;-74
2023/08/07 07:51:04;;;;;;;10.97;3.50;;;16.90;1.00;;;;;;5032919;28;20225;-75
2023/08/07 07:53:30;;;;;;;12.33;5.17;;;16.90;1.00;;;;;;5013858;28;20191;-72
2023/08/07 07:55:56;;;;;;;13.67;3.63;;;17.00;1.00;;;;;;5011771;28;20450;-65
2023/08/07 07:58:23;;;;;;;8.13;4.80;;;17.00;1.00;;;;;;5024334;28;20461;-74
2023/08/07 08:00:49;;;;;;;12.57;4.20;;;17.00;1.00;;;;;;5033680;28;20409;-69
2023/08/07 08:03:15;;;;;;;8.80;4.13;;;17.00;1.00;;;;;;5035254;28;20877;-73
2023/08/07 08:05:40;;;;;;;14.47;3.97;;;17.00;1.00;;;;;;5034578;28;20168;-67
2023/08/07 08:08:08;;;;;;;8.83;2.93;;;17.00;1.00;;;;;;5028870;28;22118;-70
2023/08/07 08:10:34;;;;;;;16.60;4.47;;;17.10;1.00;;;;;;5029740;28;20183;-72
2023/08/07 08:12:59;;;;;;;8.53;3.40;;;17.10;1.00;;;;;;5034331;28;20441;-66
2023/08/07 08:15:25;;;;;;;8.97;3.70;;;17.20;1.00;;;;;;5035286;28;20548;-73
2023/08/07 08:17:51;;;;;;;14.53;4.33;;;17.20;1.00;;;;;;5028656;28;20278;-70
2023/08/07 08:20:18;;;;;;;8.40;3.80;;;17.30;1.00;;;;;;5027377;28;20186;-67
2023/08/07 08:22:44;;;;;;;7.50;3.40;;;17.50;1.00;;;;;;5033942;28;20199;-67
2023/08/07 08:25:11;;;;;;;15.80;3.83;;;17.50;1.00;;;;;;5023467;28;20422;-73
2023/08/07 08:27:38;;;;;;;11.33;3.47;;;17.50;1.00;;;;;;5033071;28;20461;-67
2023/08/07 08:30:04;;;;;;;7.90;3.10;;;17.60;1.00;;;;;;5023515;28;20794;-66
2023/08/07 08:32:30;;;;;;;11.33;3.77;;;17.60;1.00;;;;;;5016413;28;20415;-67
2023/08/07 08:34:55;;;;;;;15.83;3.87;;;17.60;1.00;;;;;;5014455;28;20497;-68
2023/08/07 08:37:22;;;;;;;13.50;4.47;;;17.50;1.00;;;;;;5032170;28;20250;-73
2023/08/07 08:39:48;;;;;;;8.53;3.17;;;17.60;1.00;;;;;;5028173;28;20664;-73
2023/08/07 08:42:18;;;;;;;11.17;4.33;;;17.60;1.00;;;;;;5024956;28;20466;-67
2023/08/07 08:44:51;;;;;;;23.83;5.40;;;17.60;1.00;;;;;;5035108;28;20450;-68
2023/08/07 08:47:17;;;;;;;15.17;4.10;;;17.70;1.00;;;;;;5033793;28;20484;-71
2023/08/07 08:50:11;;;;;;;19.20;4.07;;;17.70;1.00;;;;;;5014442;28;20422;-72
2023/08/07 08:52:40;;;;;;;13.37;3.80;;;17.80;1.00;;;;;;5015720;28;20419;-71
2023/08/07 08:55:07;;;;;;;12.80;3.40;;;17.90;1.00;;;;;;5014655;28;20812;-73
2023/08/07 08:57:34;;;;;;;9.67;3.67;;;17.90;1.00;;;;;;5018775;28;20482;-73
2023/08/07 09:00:00;;;;;;;10.57;3.53;;;17.80;1.00;;;;;;5015398;28;20895;-68
2023/08/07 09:02:27;;;;;;;8.03;2.97;;;17.90;1.00;;;;;;5014957;28;20951;-73
2023/08/07 09:04:52;;;;;;;9.10;3.93;;;17.80;1.00;;;;;;5014994;28;20395;-69
2023/08/07 09:07:20;;;;;;;6.50;3.33;;;17.70;1.00;;;;;;5019417;28;20818;-75
2023/08/07 09:09:48;;;;;;;12.23;3.40;;;17.60;1.00;;;;;;5034974;28;20163;-72
2023/08/07 09:12:20;;;;;;;5.80;3.17;;;17.60;1.00;;;;;;5033461;28;20434;-70
2023/08/07 09:14:53;;;;;;;12.30;3.43;;;17.70;1.00;;;;;;5027582;28;20795;-75
2023/08/07 09:17:20;;;;;;;8.87;4.03;;;17.80;1.00;;;;;;5016335;28;20946;-68
2023/08/07 09:19:46;;;;;;;12.20;3.47;;;17.90;1.00;;;;;;5034509;28;20414;-68
2023/08/07 09:22:12;;;;;;;16.57;3.60;;;17.80;1.00;;;;;;5033423;28;20947;-68
2023/08/07 09:24:37;;;;;;;4.10;2.93;;;17.90;1.00;;;;;;5034704;28;20182;-71
2023/08/07 09:27:07;;;;;;;10.77;4.50;;;17.70;1.00;;;;;;5021351;28;20315;-73
2023/08/07 09:29:33;;;;;;;14.40;4.67;;;17.60;1.00;;;;;;5014767;28;20172;-73
2023/08/07 09:32:08;;;;;;;7.50;3.93;;;17.50;1.00;;;;;;5022744;28;20463;-67
2023/08/07 09:34:33;;;;;;;6.87;3.10;;;17.50;1.00;;;;;;5034526;28;20186;-68
2023/08/07 09:36:59;;;;;;;12.90;3.20;;;17.50;1.00;;;;;;5032138;28;20548;-74
2023/08/07 09:39:28;;;;;;;6.60;4.00;;;17.50;1.00;;;;;;5034013;28;20180;-66
2023/08/07 09:41:53;;;;;;;10.17;4.60;;;17.60;1.00;;;;;;5033176;28;20203;-68
2023/08/07 09:44:21;;;;;;;7.70;3.33;;;17.60;1.00;;;;;;5033336;28;20434;-67
2023/08/07 09:46:47;;;;;;;19.13;4.07;;;17.70;1.00;;;;;;5031677;28;20258;-69
2023/08/07 09:49:12;;;;;;;13.70;3.80;;;17.70;1.00;;;;;;5033535;28;20410;-73
2023/08/07 09:51:46;;;;;;;9.50;3.50;;;17.80;1.00;;;;;;5034040;28;20536;-71
2023/08/07 09:54:12;;;;;;;11.27;4.00;;;17.70;1.00;;;;;;5032985;28;20434;-68
2023/08/07 09:56:41;;;;;;;6.23;3.50;;;17.70;1.00;;;;;;5031354;28;20922;-68
2023/08/07 09:59:08;;;;;;;10.90;3.50;;;17.30;1.00;;;;;;5034079;28;20188;-71
2023/08/07 10:01:38;;;;;;;7.40;3.37;;;17.20;1.00;;;;;;5033793;28;20928;-66
2023/08/07 10:04:05;;;;;;;12.73;3.63;;;17.20;1.00;;;;;;5032781;28;20429;-74
2023/08/07 10:06:30;;;;;;;12.07;3.77;;;17.10;1.00;;;;;;5032220;28;20441;-67
2023/08/07 10:08:57;;;;;;;12.37;4.50;;;17.10;1.00;;;;;;5033035;28;20449;-70
2023/08/07 10:11:23;;;;;;;10.60;3.17;;;17.20;1.00;;;;;;5032861;28;20628;-69
2023/08/07 10:13:50;;;;;;;13.73;3.67;;;17.20;1.00;;;;;;5033145;28;20433;-75
2023/08/07 10:16:15;;;;;;;13.93;3.17;;;17.10;1.00;;;;;;5026058;28;20434;-74
2023/08/07 10:18:41;;;;;;;16.67;3.33;;;16.90;1.00;;;;;;5033919;28;20429;-71
2023/08/07 10:21:07;;;;;;;10.90;3.53;;;17.00;1.00;;;;;;5022044;28;20565;-73
2023/08/07 10:23:38;;;;;;;9.00;2.63;;;17.20;1.00;;;;;;5013138;28;20644;-71
2023/08/07 10:26:08;;;;;;;8.20;3.27;;;17.30;1.00;;;;;;5012998;28;20403;-68
2023/08/07 10:28:38;;;;;;;12.80;3.77;;;17.60;1.00;;;;;;5027904;28;21130;-67
2023/08/07 10:31:06;;;;;;;10.73;3.50;;;17.80;1.00;;;;;;5033374;28;20879;-73
2023/08/07 10:33:33;;;;;;;9.00;2.80;;;18.10;1.00;;;;;;5026931;28;20517;-70
2023/08/07 10:36:04;;;;;;;13.70;3.20;;;18.10;1.00;;;;;;5022728;28;20406;-67
2023/08/07 10:38:30;;;;;;;5.83;3.63;;;18.10;1.00;;;;;;5032560;28;20457;-74
2023/08/07 10:41:00;;;;;;;9.27;3.40;;;18.30;99.90;;;;;;5033466;28;20984;-75
2023/08/07 10:43:28;;;;;;;11.00;2.90;;;18.40;99.90;;;;;;5032153;28;20206;-72
2023/08/07 10:46:02;;;;;;;8.60;3.07;;;18.30;99.90;;;;;;5032562;28;20386;-74
2023/08/07 10:48:28;;;;;;;5.97;4.60;;;18.20;99.90;;;;;;5028514;28;20537;-75
2023/08/07 10:50:53;;;;;;;13.33;3.03;;;17.80;99.90;;;;;;5021457;28;20506;-73
2023/08/07 10:53:33;;;;;;;10.17;2.90;;;17.80;99.90;;;;;;5012313;28;20415;-74
2023/08/07 10:56:02;;;;;;;12.30;3.57;;;17.80;99.90;;;;;;5012303;28;20519;-67
2023/08/07 10:58:32;;;;;;;5.90;2.57;;;17.90;99.90;;;;;;5026141;28;20446;-72
2023/08/07 11:01:29;;;;;;;6.10;2.77;;;18.10;99.90;;;;;;5033236;28;20956;-72
2023/08/07 11:03:59;;;;;;;7.10;2.93;;;18.20;99.90;;;;;;5033117;28;20914;-69
2023/08/07 11:06:31;;;;;;;7.87;2.37;;;18.70;99.90;;;;;;5031979;28;20406;-74
2023/08/07 11:08:57;;;;;;;5.23;2.73;;;19.10;1.00;;;;;;5030014;28;20474;-73
2023/08/07 11:11:23;;;;;;;10.37;2.10;;;19.30;1.00;;;;;;5033077;28;20828;-69
2023/08/07 11:13:49;;;;;;;5.73;2.00;;;19.40;1.00;;;;;;5025829;28;20531;-73
2023/08/07 11:16:15;;;;;;;6.73;2.43;;;19.60;1.00;;;;;;5012319;28;20459;-73
2023/08/07 11:18:42;;;;;;;5.03;1.93;;;19.60;1.00;;;;;;5026715;28;20556;-74
2023/08/07 11:21:12;;;;;;;4.33;2.37;;;19.20;99.90;;;;;;5031447;28;20783;-75
2023/08/07 11:23:41;;;;;;;5.47;2.53;;;19.00;99.90;;;;;;5032989;28;20449;-68
2023/08/07 11:26:09;;;;;;;8.20;2.20;;;18.90;99.90;;;;;;5032198;28;20406;-68
2023/08/07 11:28:35;;;;;;;10.53;2.13;;;18.60;99.90;;;;;;5030868;28;20457;-68
2023/08/07 11:31:01;;;;;;;6.10;2.40;;;18.40;99.90;;;;;;5026107;28;20518;-74
2023/08/07 11:33:28;;;;;;;4.70;2.50;;;18.70;99.90;;;;;;5012082;28;20182;-68
2023/08/07 11:35:55;;;;;;;6.80;2.23;;;18.90;99.90;;;;;;5014231;28;20431;-69
2023/08/07 11:38:35;;;;;;;3.97;2.60;;;18.90;99.90;;;;;;5026806;28;20447;-68
2023/08/07 11:41:02;;;;;;;4.53;2.37;;;19.40;99.90;;;;;;5036129;28;20425;-73
2023/08/07 11:43:30;;;;;;;5.73;2.23;;;19.40;99.90;;;;;;5034856;28;20525;-73
2023/08/07 11:45:57;;;;;;;8.20;2.93;;;19.30;99.90;;;;;;5035872;28;20485;-73
2023/08/07 11:48:30;;;;;;;8.53;3.03;;;19.40;99.90;;;;;;5028746;28;20835;-71
2023/08/07 11:50:58;;;;;;;8.50;3.17;;;19.50;99.90;;;;;;5016392;28;20410;-67
2023/08/07 11:53:29;;;;;;;8.60;2.33;;;19.70;99.90;;;;;;5015581;28;20421;-68
2023/08/07 11:55:58;;;;;;;9.27;2.30;;;19.80;99.90;;;;;;5022707;28;20480;-68
2023/08/07 11:58:33;;;;;;;5.17;2.80;;;19.70;99.90;;;;;;5034725;28;20947;-68
2023/08/07 12:00:59;;;;;;;11.23;2.83;;;19.50;99.90;;;;;;5036525;28;20425;-72
2023/08/07 12:03:34;;;;;;;10.20;6.10;;;19.30;99.90;;;;;;5036450;28;20942;-72
2023/08/07 12:06:02;;;;;;;11.03;2.83;;;19.20;99.90;;;;;;5023325;28;20207;-68
2023/08/07 12:08:34;;;;;;;5.17;2.43;;;19.90;99.90;;;;;;5026287;28;20838;-71
2023/08/07 12:11:05;;;;;;;4.27;2.00;;;21.00;99.90;;;;;;5036187;28;20796;-68
2023/08/07 12:13:35;;;;;;;9.03;2.27;;;21.50;99.90;;;;;;5034333;28;20545;-68
2023/08/07 12:16:02;;;;;;;8.70;2.43;;;21.00;99.90;;;;;;5027243;28;20454;-68
2023/08/07 12:18:28;;;;;;;16.43;2.97;;;20.40;99.90;;;;;;5017440;28;20907;-67
2023/08/07 12:21:02;;;;;;;3.77;2.60;;;20.00;99.90;;;;;;5016225;28;20553;-68
2023/08/07 12:23:28;;;;;;;8.50;2.90;;;19.60;99.90;;;;;;5016281;28;20427;-73
2023/08/07 12:25:54;;;;;;;9.63;2.80;;;19.20;99.90;;;;;;5027095;28;20422;-71
2023/08/07 12:28:20;;;;;;;7.80;3.23;;;19.20;99.90;;;;;;5033816;28;20799;-72
2023/08/07 12:30:47;;;;;;;9.27;2.40;;;19.20;99.90;;;;;;5033927;28;20872;-74
2023/08/07 12:33:13;;;;;;;5.80;2.83;;;19.30;99.90;;;;;;5021570;28;20505;-71
2023/08/07 12:35:40;;;;;;;6.63;2.40;;;19.60;99.90;;;;;;5032136;28;20402;-71
2023/08/07 12:38:06;;;;;;;6.27;2.57;;;19.90;99.90;;;;;;5034510;28;20508;-68
2023/08/07 12:40:32;;;;;;;5.47;2.87;;;20.50;99.90;;;;;;5035493;28;20834;-70
2023/08/07 12:43:00;;;;;;;4.90;2.77;;;20.50;99.90;;;;;;5034118;28;20962;-68
2023/08/07 12:45:26;;;;;;;4.77;2.20;;;20.30;99.90;;;;;;5030028;28;21184;-72
2023/08/07 12:47:52;;;;;;;8.00;2.07;;;19.90;99.90;;;;;;5029652;28;20449;-72
2023/08/07 12:50:18;;;;;;;9.43;2.80;;;19.50;99.90;;;;;;5019623;28;20172;-72